sensor_id;sensor_type;location;lat;lon;timestamp;P1;durP1;ratioP1;P2;durP2;ratioP2
71116;SDS011;58775;46.992;9.518;2023-03-23T00:01:42;11.27;;;3.60;;
71116;SDS011;58775;46.992;9.518;2023-03-23T00:03:43;7.00;;;3.28;;
71116;SDS011;58775;46.992;9.518;2023-03-23T00:05:44;10.65;;;3.60;;
71116;SDS011;58775;46.992;9.518;2023-03-23T00:07:50;8.73;;;3.70;;
71116;SDS011;58775;46.992;9.518;2023-03-23T00:09:52;13.18;;;4.43;;
71116;SDS011;58775;46.992;9.518;2023-03-23T00:11:54;14.87;;;3.87;;
71116;SDS011;58775;46.992;9.518;2023-03-23T00:13:58;9.32;;;3.97;;
71116;SDS011;58775;46.992;9.518;2023-03-23T00:16:01;9.35;;;4.25;;
71116;SDS011;58775;46.992;9.518;2023-03-23T00:18:02;12.50;;;3.80;;
71116;SDS011;58775;46.992;9.518;2023-03-23T00:20:05;12.25;;;4.63;;
71116;SDS011;58775;46.992;9.518;2023-03-23T00:22:07;7.70;;;3.20;;
71116;SDS011;58775;46.992;9.518;2023-03-23T00:24:12;7.32;;;3.40;;
71116;SDS011;58775;46.992;9.518;2023-03-23T00:26:16;10.38;;;3.60;;
71116;SDS011;58775;46.992;9.518;2023-03-23T00:28:17;10.35;;;3.42;;
71116;SDS011;58775;46.992;9.518;2023-03-23T00:30:20;7.73;;;3.33;;
71116;SDS011;58775;46.992;9.518;2023-03-23T00:32:23;11.45;;;3.97;;
71116;SDS011;58775;46.992;9.518;2023-03-23T00:34:27;10.38;;;4.05;;
71116;SDS011;58775;46.992;9.518;2023-03-23T00:36:33;8.32;;;4.07;;
71116;SDS011;58775;46.992;9.518;2023-03-23T00:38:37;7.68;;;3.60;;
71116;SDS011;58775;46.992;9.518;2023-03-23T00:40:39;12.73;;;4.47;;
71116;SDS011;58775;46.992;9.518;2023-03-23T00:42:40;10.25;;;4.65;;
71116;SDS011;58775;46.992;9.518;2023-03-23T00:44:42;9.35;;;4.18;;
71116;SDS011;58775;46.992;9.518;2023-03-23T00:46:45;10.68;;;5.07;;
71116;SDS011;58775;46.992;9.518;2023-03-23T00:48:49;11.57;;;4.32;;
71116;SDS011;58775;46.992;9.518;2023-03-23T00:50:50;10.65;;;4.60;;
71116;SDS011;58775;46.992;9.518;2023-03-23T00:52:52;9.55;;;3.50;;
71116;SDS011;58775;46.992;9.518;2023-03-23T00:54:55;10.65;;;3.83;;
71116;SDS011;58775;46.992;9.518;2023-03-23T00:56:59;9.98;;;4.50;;
71116;SDS011;58775;46.992;9.518;2023-03-23T00:59:00;7.75;;;3.83;;
71116;SDS011;58775;46.992;9.518;2023-03-23T01:01:02;8.77;;;3.95;;
71116;SDS011;58775;46.992;9.518;2023-03-23T01:03:04;7.15;;;3.90;;
71116;SDS011;58775;46.992;9.518;2023-03-23T01:05:06;8.43;;;3.67;;
71116;SDS011;58775;46.992;9.518;2023-03-23T01:07:07;14.15;;;4.80;;
71116;SDS011;58775;46.992;9.518;2023-03-23T01:09:09;11.73;;;4.20;;
71116;SDS011;58775;46.992;9.518;2023-03-23T01:11:17;12.10;;;5.10;;
71116;SDS011;58775;46.992;9.518;2023-03-23T01:13:18;8.75;;;4.82;;
71116;SDS011;58775;46.992;9.518;2023-03-23T01:15:19;8.77;;;3.97;;
71116;SDS011;58775;46.992;9.518;2023-03-23T01:17:21;11.48;;;4.13;;
71116;SDS011;58775;46.992;9.518;2023-03-23T01:19:22;8.48;;;3.58;;
71116;SDS011;58775;46.992;9.518;2023-03-23T01:21:23;10.50;;;4.38;;
71116;SDS011;58775;46.992;9.518;2023-03-23T01:23:26;10.52;;;4.93;;
71116;SDS011;58775;46.992;9.518;2023-03-23T01:25:27;9.13;;;3.97;;
71116;SDS011;58775;46.992;9.518;2023-03-23T01:27:30;13.25;;;3.75;;
71116;SDS011;58775;46.992;9.518;2023-03-23T01:29:34;8.93;;;3.60;;
71116;SDS011;58775;46.992;9.518;2023-03-23T01:31:36;9.32;;;3.97;;
71116;SDS011;58775;46.992;9.518;2023-03-23T01:33:39;13.35;;;4.40;;
71116;SDS011;58775;46.992;9.518;2023-03-23T01:35:41;9.85;;;3.83;;
71116;SDS011;58775;46.992;9.518;2023-03-23T01:37:42;7.55;;;3.42;;
71116;SDS011;58775;46.992;9.518;2023-03-23T01:39:43;9.00;;;4.18;;
71116;SDS011;58775;46.992;9.518;2023-03-23T01:41:45;8.73;;;3.90;;
71116;SDS011;58775;46.992;9.518;2023-03-23T01:46:43;8.00;;;3.67;;
71116;SDS011;58775;46.992;9.518;2023-03-23T01:48:45;9.38;;;3.92;;
71116;SDS011;58775;46.992;9.518;2023-03-23T01:50:56;8.68;;;3.75;;
71116;SDS011;58775;46.992;9.518;2023-03-23T01:53:05;8.85;;;3.75;;
71116;SDS011;58775;46.992;9.518;2023-03-23T01:55:10;8.50;;;3.53;;
71116;SDS011;58775;46.992;9.518;2023-03-23T01:57:12;9.00;;;3.63;;
71116;SDS011;58775;46.992;9.518;2023-03-23T01:59:17;9.40;;;4.35;;
71116;SDS011;58775;46.992;9.518;2023-03-23T02:01:22;8.60;;;3.50;;
71116;SDS011;58775;46.992;9.518;2023-03-23T02:03:26;10.55;;;3.83;;
71116;SDS011;58775;46.992;9.518;2023-03-23T02:05:30;10.18;;;3.63;;
71116;SDS011;58775;46.992;9.518;2023-03-23T02:08:03;10.38;;;3.65;;
71116;SDS011;58775;46.992;9.518;2023-03-23T02:10:08;10.70;;;4.55;;
71116;SDS011;58775;46.992;9.518;2023-03-23T02:12:10;9.35;;;3.65;;
71116;SDS011;58775;46.992;9.518;2023-03-23T02:14:14;12.73;;;4.30;;
71116;SDS011;58775;46.992;9.518;2023-03-23T02:35:10;9.25;;;3.90;;
71116;SDS011;58775;46.992;9.518;2023-03-23T02:39:28;9.18;;;4.18;;
71116;SDS011;58775;46.992;9.518;2023-03-23T02:41:55;9.35;;;4.10;;
71116;SDS011;58775;46.992;9.518;2023-03-23T02:44:17;8.88;;;3.38;;
71116;SDS011;58775;46.992;9.518;2023-03-23T02:46:19;9.05;;;4.15;;
71116;SDS011;58775;46.992;9.518;2023-03-23T02:48:22;9.13;;;3.92;;
71116;SDS011;58775;46.992;9.518;2023-03-23T02:50:28;8.43;;;3.85;;
71116;SDS011;58775;46.992;9.518;2023-03-23T02:52:32;8.73;;;4.25;;
71116;SDS011;58775;46.992;9.518;2023-03-23T02:54:36;9.10;;;4.38;;
71116;SDS011;58775;46.992;9.518;2023-03-23T02:56:39;10.70;;;3.88;;
71116;SDS011;58775;46.992;9.518;2023-03-23T02:58:49;10.15;;;3.80;;
71116;SDS011;58775;46.992;9.518;2023-03-23T03:00:50;8.52;;;3.85;;
71116;SDS011;58775;46.992;9.518;2023-03-23T03:02:54;7.95;;;3.50;;
71116;SDS011;58775;46.992;9.518;2023-03-23T03:07:10;7.43;;;3.55;;
71116;SDS011;58775;46.992;9.518;2023-03-23T03:09:42;8.50;;;3.65;;
71116;SDS011;58775;46.992;9.518;2023-03-23T03:11:56;9.50;;;3.80;;
71116;SDS011;58775;46.992;9.518;2023-03-23T03:14:08;9.77;;;3.25;;
71116;SDS011;58775;46.992;9.518;2023-03-23T03:16:27;8.75;;;3.70;;
71116;SDS011;58775;46.992;9.518;2023-03-23T03:18:42;7.60;;;3.67;;
71116;SDS011;58775;46.992;9.518;2023-03-23T03:20:49;8.90;;;3.53;;
71116;SDS011;58775;46.992;9.518;2023-03-23T03:22:56;13.05;;;3.80;;
71116;SDS011;58775;46.992;9.518;2023-03-23T03:25:00;11.52;;;3.53;;
71116;SDS011;58775;46.992;9.518;2023-03-23T03:27:02;9.60;;;3.97;;
71116;SDS011;58775;46.992;9.518;2023-03-23T03:29:17;9.68;;;4.13;;
71116;SDS011;58775;46.992;9.518;2023-03-23T03:31:29;10.27;;;4.18;;
71116;SDS011;58775;46.992;9.518;2023-03-23T03:33:34;9.73;;;3.60;;
71116;SDS011;58775;46.992;9.518;2023-03-23T03:35:36;9.20;;;3.50;;
71116;SDS011;58775;46.992;9.518;2023-03-23T03:37:39;8.43;;;3.40;;
71116;SDS011;58775;46.992;9.518;2023-03-23T03:39:41;7.15;;;3.45;;
71116;SDS011;58775;46.992;9.518;2023-03-23T03:41:44;9.52;;;3.63;;
71116;SDS011;58775;46.992;9.518;2023-03-23T03:43:46;8.52;;;3.97;;
71116;SDS011;58775;46.992;9.518;2023-03-23T03:45:47;8.68;;;3.50;;
71116;SDS011;58775;46.992;9.518;2023-03-23T03:47:48;12.13;;;4.18;;
71116;SDS011;58775;46.992;9.518;2023-03-23T03:49:50;7.65;;;3.65;;
71116;SDS011;58775;46.992;9.518;2023-03-23T03:51:51;8.88;;;4.10;;
71116;SDS011;58775;46.992;9.518;2023-03-23T03:53:57;7.45;;;3.72;;
71116;SDS011;58775;46.992;9.518;2023-03-23T03:55:58;10.52;;;4.07;;
71116;SDS011;58775;46.992;9.518;2023-03-23T03:58:05;9.35;;;3.88;;
71116;SDS011;58775;46.992;9.518;2023-03-23T04:00:27;8.67;;;3.33;;
71116;SDS011;58775;46.992;9.518;2023-03-23T04:02:28;11.35;;;3.50;;
71116;SDS011;58775;46.992;9.518;2023-03-23T04:04:30;11.43;;;4.25;;
71116;SDS011;58775;46.992;9.518;2023-03-23T04:06:32;7.22;;;3.40;;
71116;SDS011;58775;46.992;9.518;2023-03-23T04:08:37;7.43;;;3.47;;
71116;SDS011;58775;46.992;9.518;2023-03-23T04:10:39;9.07;;;3.73;;
71116;SDS011;58775;46.992;9.518;2023-03-23T04:12:42;7.93;;;3.00;;
71116;SDS011;58775;46.992;9.518;2023-03-23T04:15:08;8.07;;;3.20;;
71116;SDS011;58775;46.992;9.518;2023-03-23T04:17:13;6.90;;;3.10;;
71116;SDS011;58775;46.992;9.518;2023-03-23T04:19:16;9.52;;;3.13;;
71116;SDS011;58775;46.992;9.518;2023-03-23T04:21:17;9.33;;;4.20;;
71116;SDS011;58775;46.992;9.518;2023-03-23T04:23:21;9.60;;;4.05;;
71116;SDS011;58775;46.992;9.518;2023-03-23T04:25:24;6.65;;;3.40;;
71116;SDS011;58775;46.992;9.518;2023-03-23T04:27:27;10.95;;;3.80;;
71116;SDS011;58775;46.992;9.518;2023-03-23T04:29:31;7.88;;;3.00;;
71116;SDS011;58775;46.992;9.518;2023-03-23T04:31:57;9.77;;;3.70;;
71116;SDS011;58775;46.992;9.518;2023-03-23T04:34:07;11.15;;;3.25;;
71116;SDS011;58775;46.992;9.518;2023-03-23T04:36:14;8.23;;;3.20;;
71116;SDS011;58775;46.992;9.518;2023-03-23T04:38:26;10.07;;;3.28;;
71116;SDS011;58775;46.992;9.518;2023-03-23T04:40:38;6.50;;;3.00;;
71116;SDS011;58775;46.992;9.518;2023-03-23T04:42:55;8.73;;;3.53;;
71116;SDS011;58775;46.992;9.518;2023-03-23T04:45:26;7.07;;;3.28;;
71116;SDS011;58775;46.992;9.518;2023-03-23T04:47:31;7.90;;;4.03;;
71116;SDS011;58775;46.992;9.518;2023-03-23T04:49:35;8.40;;;3.33;;
71116;SDS011;58775;46.992;9.518;2023-03-23T04:51:53;8.55;;;3.20;;
71116;SDS011;58775;46.992;9.518;2023-03-23T04:54:04;8.43;;;3.60;;
71116;SDS011;58775;46.992;9.518;2023-03-23T04:56:06;7.65;;;3.53;;
71116;SDS011;58775;46.992;9.518;2023-03-23T04:58:14;7.45;;;3.35;;
71116;SDS011;58775;46.992;9.518;2023-03-23T05:00:38;8.43;;;3.60;;
71116;SDS011;58775;46.992;9.518;2023-03-23T05:02:39;8.95;;;3.65;;
71116;SDS011;58775;46.992;9.518;2023-03-23T05:04:41;7.93;;;2.83;;
71116;SDS011;58775;46.992;9.518;2023-03-23T05:06:46;11.07;;;3.45;;
71116;SDS011;58775;46.992;9.518;2023-03-23T05:08:54;8.25;;;3.90;;
71116;SDS011;58775;46.992;9.518;2023-03-23T05:10:57;11.48;;;3.90;;
71116;SDS011;58775;46.992;9.518;2023-03-23T05:13:06;10.38;;;4.60;;
71116;SDS011;58775;46.992;9.518;2023-03-23T05:15:07;9.67;;;4.03;;
71116;SDS011;58775;46.992;9.518;2023-03-23T05:17:11;8.93;;;3.42;;
71116;SDS011;58775;46.992;9.518;2023-03-23T05:19:19;9.77;;;4.38;;
71116;SDS011;58775;46.992;9.518;2023-03-23T05:21:20;9.18;;;4.82;;
71116;SDS011;58775;46.992;9.518;2023-03-23T05:23:26;7.35;;;3.70;;
71116;SDS011;58775;46.992;9.518;2023-03-23T05:25:39;10.67;;;4.70;;
71116;SDS011;58775;46.992;9.518;2023-03-23T05:27:57;9.75;;;4.10;;
71116;SDS011;58775;46.992;9.518;2023-03-23T05:30:18;11.32;;;4.40;;
71116;SDS011;58775;46.992;9.518;2023-03-23T05:32:21;8.90;;;3.83;;
71116;SDS011;58775;46.992;9.518;2023-03-23T05:34:35;10.43;;;4.50;;
71116;SDS011;58775;46.992;9.518;2023-03-23T05:36:38;7.93;;;3.93;;
71116;SDS011;58775;46.992;9.518;2023-03-23T05:38:45;9.32;;;4.05;;
71116;SDS011;58775;46.992;9.518;2023-03-23T05:40:52;7.88;;;4.03;;
71116;SDS011;58775;46.992;9.518;2023-03-23T05:43:05;7.72;;;4.40;;
71116;SDS011;58775;46.992;9.518;2023-03-23T05:45:18;9.65;;;4.80;;
71116;SDS011;58775;46.992;9.518;2023-03-23T05:47:20;8.90;;;4.20;;
71116;SDS011;58775;46.992;9.518;2023-03-23T05:49:29;8.73;;;4.13;;
71116;SDS011;58775;46.992;9.518;2023-03-23T05:51:31;9.57;;;4.70;;
71116;SDS011;58775;46.992;9.518;2023-03-23T05:53:33;10.32;;;4.68;;
71116;SDS011;58775;46.992;9.518;2023-03-23T05:55:36;11.05;;;4.82;;
71116;SDS011;58775;46.992;9.518;2023-03-23T05:57:48;8.57;;;4.33;;
71116;SDS011;58775;46.992;9.518;2023-03-23T06:00:10;8.95;;;4.30;;
71116;SDS011;58775;46.992;9.518;2023-03-23T06:02:16;9.55;;;4.38;;
71116;SDS011;58775;46.992;9.518;2023-03-23T06:04:17;10.50;;;4.78;;
71116;SDS011;58775;46.992;9.518;2023-03-23T06:06:35;9.55;;;4.70;;
71116;SDS011;58775;46.992;9.518;2023-03-23T06:08:41;11.10;;;4.60;;
71116;SDS011;58775;46.992;9.518;2023-03-23T06:11:04;12.93;;;4.72;;
71116;SDS011;58775;46.992;9.518;2023-03-23T06:13:12;9.88;;;4.28;;
71116;SDS011;58775;46.992;9.518;2023-03-23T06:15:18;8.35;;;4.28;;
71116;SDS011;58775;46.992;9.518;2023-03-23T06:17:42;8.50;;;4.55;;
71116;SDS011;58775;46.992;9.518;2023-03-23T06:19:43;9.33;;;4.10;;
71116;SDS011;58775;46.992;9.518;2023-03-23T06:21:51;11.20;;;4.32;;
71116;SDS011;58775;46.992;9.518;2023-03-23T06:24:10;9.30;;;4.53;;
71116;SDS011;58775;46.992;9.518;2023-03-23T06:26:12;8.73;;;4.00;;
71116;SDS011;58775;46.992;9.518;2023-03-23T06:28:21;8.02;;;3.80;;
71116;SDS011;58775;46.992;9.518;2023-03-23T06:30:23;9.93;;;4.13;;
71116;SDS011;58775;46.992;9.518;2023-03-23T06:32:26;7.95;;;4.00;;
71116;SDS011;58775;46.992;9.518;2023-03-23T06:34:32;8.27;;;3.95;;
71116;SDS011;58775;46.992;9.518;2023-03-23T06:37:03;9.18;;;4.00;;
71116;SDS011;58775;46.992;9.518;2023-03-23T06:39:19;9.75;;;4.50;;
71116;SDS011;58775;46.992;9.518;2023-03-23T06:41:30;7.73;;;4.00;;
71116;SDS011;58775;46.992;9.518;2023-03-23T06:43:34;8.80;;;4.32;;
71116;SDS011;58775;46.992;9.518;2023-03-23T06:45:53;10.25;;;4.60;;
71116;SDS011;58775;46.992;9.518;2023-03-23T06:48:12;10.00;;;4.20;;
71116;SDS011;58775;46.992;9.518;2023-03-23T06:50:15;7.97;;;4.35;;
71116;SDS011;58775;46.992;9.518;2023-03-23T06:52:17;9.37;;;4.53;;
71116;SDS011;58775;46.992;9.518;2023-03-23T06:54:19;11.00;;;4.60;;
71116;SDS011;58775;46.992;9.518;2023-03-23T06:56:20;12.38;;;4.50;;
71116;SDS011;58775;46.992;9.518;2023-03-23T06:58:29;10.70;;;4.82;;
71116;SDS011;58775;46.992;9.518;2023-03-23T07:00:35;10.10;;;4.68;;
71116;SDS011;58775;46.992;9.518;2023-03-23T07:02:39;8.17;;;4.33;;
71116;SDS011;58775;46.992;9.518;2023-03-23T07:04:45;12.05;;;5.13;;
71116;SDS011;58775;46.992;9.518;2023-03-23T07:09:47;10.95;;;4.45;;
71116;SDS011;58775;46.992;9.518;2023-03-23T07:11:55;8.73;;;4.35;;
71116;SDS011;58775;46.992;9.518;2023-03-23T07:14:04;8.83;;;4.27;;
71116;SDS011;58775;46.992;9.518;2023-03-23T07:16:06;9.27;;;4.60;;
71116;SDS011;58775;46.992;9.518;2023-03-23T07:18:23;10.43;;;4.57;;
71116;SDS011;58775;46.992;9.518;2023-03-23T07:20:28;7.40;;;3.83;;
71116;SDS011;58775;46.992;9.518;2023-03-23T07:22:30;7.13;;;3.58;;
71116;SDS011;58775;46.992;9.518;2023-03-23T07:24:41;7.70;;;3.60;;
71116;SDS011;58775;46.992;9.518;2023-03-23T07:26:59;6.85;;;3.25;;
71116;SDS011;58775;46.992;9.518;2023-03-23T07:29:20;8.95;;;4.07;;
71116;SDS011;58775;46.992;9.518;2023-03-23T07:35:10;11.05;;;3.75;;
71116;SDS011;58775;46.992;9.518;2023-03-23T07:37:23;9.90;;;4.63;;
71116;SDS011;58775;46.992;9.518;2023-03-23T07:39:27;7.70;;;3.90;;
71116;SDS011;58775;46.992;9.518;2023-03-23T07:44:34;8.00;;;3.72;;
71116;SDS011;58775;46.992;9.518;2023-03-23T07:46:41;9.50;;;4.50;;
71116;SDS011;58775;46.992;9.518;2023-03-23T07:48:50;9.27;;;4.13;;
71116;SDS011;58775;46.992;9.518;2023-03-23T07:50:53;7.85;;;3.35;;
71116;SDS011;58775;46.992;9.518;2023-03-23T07:52:57;7.80;;;4.45;;
71116;SDS011;58775;46.992;9.518;2023-03-23T07:55:02;8.38;;;4.05;;
71116;SDS011;58775;46.992;9.518;2023-03-23T07:57:15;7.13;;;3.58;;
71116;SDS011;58775;46.992;9.518;2023-03-23T07:59:42;8.73;;;3.83;;
71116;SDS011;58775;46.992;9.518;2023-03-23T08:02:12;6.70;;;3.42;;
71116;SDS011;58775;46.992;9.518;2023-03-23T08:04:36;7.72;;;3.60;;
71116;SDS011;58775;46.992;9.518;2023-03-23T08:07:22;9.77;;;4.70;;
71116;SDS011;58775;46.992;9.518;2023-03-23T08:17:44;9.13;;;4.60;;
71116;SDS011;58775;46.992;9.518;2023-03-23T08:20:41;7.95;;;3.75;;
71116;SDS011;58775;46.992;9.518;2023-03-23T08:23:27;9.05;;;4.50;;
71116;SDS011;58775;46.992;9.518;2023-03-23T08:26:18;8.48;;;3.55;;
71116;SDS011;58775;46.992;9.518;2023-03-23T08:32:28;8.88;;;4.25;;
71116;SDS011;58775;46.992;9.518;2023-03-23T08:34:48;7.97;;;4.00;;
71116;SDS011;58775;46.992;9.518;2023-03-23T08:37:25;11.48;;;4.40;;
71116;SDS011;58775;46.992;9.518;2023-03-23T08:40:20;9.20;;;4.05;;
71116;SDS011;58775;46.992;9.518;2023-03-23T08:47:18;8.40;;;3.80;;
71116;SDS011;58775;46.992;9.518;2023-03-23T08:50:20;7.75;;;3.90;;
71116;SDS011;58775;46.992;9.518;2023-03-23T08:52:38;9.52;;;4.22;;
71116;SDS011;58775;46.992;9.518;2023-03-23T08:55:01;10.32;;;4.03;;
71116;SDS011;58775;46.992;9.518;2023-03-23T08:57:22;8.40;;;3.73;;
71116;SDS011;58775;46.992;9.518;2023-03-23T08:59:51;9.25;;;3.90;;
71116;SDS011;58775;46.992;9.518;2023-03-23T09:02:05;8.13;;;4.00;;
71116;SDS011;58775;46.992;9.518;2023-03-23T09:04:16;8.40;;;4.20;;
71116;SDS011;58775;46.992;9.518;2023-03-23T09:06:51;9.85;;;4.32;;
71116;SDS011;58775;46.992;9.518;2023-03-23T09:08:53;8.03;;;4.50;;
71116;SDS011;58775;46.992;9.518;2023-03-23T09:10:59;7.90;;;3.78;;
71116;SDS011;58775;46.992;9.518;2023-03-23T09:13:24;8.10;;;4.20;;
71116;SDS011;58775;46.992;9.518;2023-03-23T09:15:27;8.57;;;4.28;;
71116;SDS011;58775;46.992;9.518;2023-03-23T09:17:39;8.27;;;4.03;;
71116;SDS011;58775;46.992;9.518;2023-03-23T09:19:44;8.23;;;4.40;;
71116;SDS011;58775;46.992;9.518;2023-03-23T09:21:46;8.02;;;3.72;;
71116;SDS011;58775;46.992;9.518;2023-03-23T09:23:54;7.60;;;4.28;;
71116;SDS011;58775;46.992;9.518;2023-03-23T09:26:06;9.07;;;4.35;;
71116;SDS011;58775;46.992;9.518;2023-03-23T09:28:10;6.70;;;3.85;;
71116;SDS011;58775;46.992;9.518;2023-03-23T09:30:12;7.67;;;4.30;;
71116;SDS011;58775;46.992;9.518;2023-03-23T09:32:19;7.80;;;3.88;;
71116;SDS011;58775;46.992;9.518;2023-03-23T09:34:22;7.68;;;4.10;;
71116;SDS011;58775;46.992;9.518;2023-03-23T09:36:39;7.50;;;4.05;;
71116;SDS011;58775;46.992;9.518;2023-03-23T09:39:38;7.43;;;4.10;;
71116;SDS011;58775;46.992;9.518;2023-03-23T09:43:46;7.68;;;4.35;;
71116;SDS011;58775;46.992;9.518;2023-03-23T09:50:42;7.70;;;4.20;;
71116;SDS011;58775;46.992;9.518;2023-03-23T09:53:03;8.93;;;4.57;;
71116;SDS011;58775;46.992;9.518;2023-03-23T09:55:29;8.93;;;4.20;;
71116;SDS011;58775;46.992;9.518;2023-03-23T09:57:34;6.25;;;3.55;;
71116;SDS011;58775;46.992;9.518;2023-03-23T10:02:14;8.00;;;3.92;;
71116;SDS011;58775;46.992;9.518;2023-03-23T10:04:29;6.93;;;3.50;;
71116;SDS011;58775;46.992;9.518;2023-03-23T10:06:39;8.48;;;3.78;;
71116;SDS011;58775;46.992;9.518;2023-03-23T10:08:44;7.90;;;3.80;;
71116;SDS011;58775;46.992;9.518;2023-03-23T10:15:41;6.83;;;3.30;;
71116;SDS011;58775;46.992;9.518;2023-03-23T10:19:58;7.07;;;3.90;;
71116;SDS011;58775;46.992;9.518;2023-03-23T10:22:11;8.93;;;3.78;;
71116;SDS011;58775;46.992;9.518;2023-03-23T10:24:15;7.03;;;3.58;;
71116;SDS011;58775;46.992;9.518;2023-03-23T10:28:42;7.60;;;3.95;;
71116;SDS011;58775;46.992;9.518;2023-03-23T10:30:48;9.57;;;4.20;;
71116;SDS011;58775;46.992;9.518;2023-03-23T10:35:10;6.75;;;3.75;;
71116;SDS011;58775;46.992;9.518;2023-03-23T10:39:49;5.60;;;3.03;;
71116;SDS011;58775;46.992;9.518;2023-03-23T10:42:00;6.10;;;3.47;;
71116;SDS011;58775;46.992;9.518;2023-03-23T10:44:15;6.80;;;3.40;;
71116;SDS011;58775;46.992;9.518;2023-03-23T10:46:39;8.32;;;3.97;;
71116;SDS011;58775;46.992;9.518;2023-03-23T10:48:50;7.80;;;3.50;;
71116;SDS011;58775;46.992;9.518;2023-03-23T10:50:56;7.80;;;3.50;;
71116;SDS011;58775;46.992;9.518;2023-03-23T10:53:03;9.13;;;3.33;;
71116;SDS011;58775;46.992;9.518;2023-03-23T10:55:17;6.57;;;3.30;;
71116;SDS011;58775;46.992;9.518;2023-03-23T10:57:27;6.50;;;3.53;;
71116;SDS011;58775;46.992;9.518;2023-03-23T10:59:32;6.63;;;3.23;;
71116;SDS011;58775;46.992;9.518;2023-03-23T11:04:45;5.90;;;3.38;;
71116;SDS011;58775;46.992;9.518;2023-03-23T11:06:58;7.07;;;3.17;;
71116;SDS011;58775;46.992;9.518;2023-03-23T11:11:51;6.30;;;3.33;;
71116;SDS011;58775;46.992;9.518;2023-03-23T11:14:01;6.78;;;3.50;;
71116;SDS011;58775;46.992;9.518;2023-03-23T11:16:27;7.13;;;3.40;;
71116;SDS011;58775;46.992;9.518;2023-03-23T11:18:39;6.20;;;3.00;;
71116;SDS011;58775;46.992;9.518;2023-03-23T11:20:47;6.53;;;3.95;;
71116;SDS011;58775;46.992;9.518;2023-03-23T11:22:52;9.30;;;5.53;;
71116;SDS011;58775;46.992;9.518;2023-03-23T11:24:55;9.63;;;5.60;;
71116;SDS011;58775;46.992;9.518;2023-03-23T11:27:00;6.90;;;4.38;;
71116;SDS011;58775;46.992;9.518;2023-03-23T11:29:12;11.88;;;5.05;;
71116;SDS011;58775;46.992;9.518;2023-03-23T11:31:14;10.40;;;5.22;;
71116;SDS011;58775;46.992;9.518;2023-03-23T11:33:16;7.57;;;4.67;;
71116;SDS011;58775;46.992;9.518;2023-03-23T11:35:21;7.53;;;4.90;;
71116;SDS011;58775;46.992;9.518;2023-03-23T11:39:54;9.07;;;5.25;;
71116;SDS011;58775;46.992;9.518;2023-03-23T11:41:59;8.48;;;4.80;;
71116;SDS011;58775;46.992;9.518;2023-03-23T11:44:12;11.17;;;5.27;;
71116;SDS011;58775;46.992;9.518;2023-03-23T11:48:33;9.95;;;5.13;;
71116;SDS011;58775;46.992;9.518;2023-03-23T11:51:02;7.82;;;4.63;;
71116;SDS011;58775;46.992;9.518;2023-03-23T11:55:30;9.87;;;4.73;;
71116;SDS011;58775;46.992;9.518;2023-03-23T11:57:58;9.50;;;5.13;;
71116;SDS011;58775;46.992;9.518;2023-03-23T12:00:15;8.02;;;4.75;;
71116;SDS011;58775;46.992;9.518;2023-03-23T12:02:29;8.65;;;5.13;;
71116;SDS011;58775;46.992;9.518;2023-03-23T12:04:44;8.63;;;5.10;;
71116;SDS011;58775;46.992;9.518;2023-03-23T12:11:56;11.25;;;6.22;;
71116;SDS011;58775;46.992;9.518;2023-03-23T12:14:21;11.63;;;6.38;;
71116;SDS011;58775;46.992;9.518;2023-03-23T12:16:59;10.70;;;5.53;;
71116;SDS011;58775;46.992;9.518;2023-03-23T12:26:13;9.15;;;5.18;;
71116;SDS011;58775;46.992;9.518;2023-03-23T12:44:30;8.38;;;4.00;;
71116;SDS011;58775;46.992;9.518;2023-03-23T12:51:14;6.55;;;3.50;;
71116;SDS011;58775;46.992;9.518;2023-03-23T12:53:26;6.97;;;3.00;;
71116;SDS011;58775;46.992;9.518;2023-03-23T12:55:53;6.15;;;3.22;;
71116;SDS011;58775;46.992;9.518;2023-03-23T13:02:24;4.63;;;2.40;;
71116;SDS011;58775;46.992;9.518;2023-03-23T13:04:32;5.50;;;2.70;;
71116;SDS011;58775;46.992;9.518;2023-03-23T13:06:39;4.93;;;2.75;;
71116;SDS011;58775;46.992;9.518;2023-03-23T13:11:20;5.50;;;3.20;;
71116;SDS011;58775;46.992;9.518;2023-03-23T13:13:50;6.75;;;3.50;;
71116;SDS011;58775;46.992;9.518;2023-03-23T13:16:02;7.30;;;3.60;;
71116;SDS011;58775;46.992;9.518;2023-03-23T13:18:10;7.85;;;3.75;;
71116;SDS011;58775;46.992;9.518;2023-03-23T13:27:58;8.10;;;4.53;;
71116;SDS011;58775;46.992;9.518;2023-03-23T13:30:01;8.43;;;3.70;;
71116;SDS011;58775;46.992;9.518;2023-03-23T13:32:06;10.30;;;3.90;;
71116;SDS011;58775;46.992;9.518;2023-03-23T13:34:30;10.55;;;4.72;;
71116;SDS011;58775;46.992;9.518;2023-03-23T13:36:37;8.68;;;4.32;;
71116;SDS011;58775;46.992;9.518;2023-03-23T13:38:47;7.90;;;4.03;;
71116;SDS011;58775;46.992;9.518;2023-03-23T13:40:51;7.20;;;3.65;;
71116;SDS011;58775;46.992;9.518;2023-03-23T13:42:55;7.00;;;4.28;;
71116;SDS011;58775;46.992;9.518;2023-03-23T13:45:06;6.47;;;3.45;;
71116;SDS011;58775;46.992;9.518;2023-03-23T13:47:35;7.47;;;3.92;;
71116;SDS011;58775;46.992;9.518;2023-03-23T13:49:50;9.07;;;4.20;;
71116;SDS011;58775;46.992;9.518;2023-03-23T13:52:01;6.75;;;3.75;;
71116;SDS011;58775;46.992;9.518;2023-03-23T13:56:40;6.93;;;3.63;;
71116;SDS011;58775;46.992;9.518;2023-03-23T14:01:32;6.10;;;3.47;;
71116;SDS011;58775;46.992;9.518;2023-03-23T14:03:36;7.53;;;3.17;;
71116;SDS011;58775;46.992;9.518;2023-03-23T14:05:45;7.63;;;3.83;;
71116;SDS011;58775;46.992;9.518;2023-03-23T14:08:02;8.00;;;3.80;;
71116;SDS011;58775;46.992;9.518;2023-03-23T14:10:24;7.30;;;4.03;;
71116;SDS011;58775;46.992;9.518;2023-03-23T14:12:32;6.87;;;3.57;;
71116;SDS011;58775;46.992;9.518;2023-03-23T14:14:44;7.30;;;3.63;;
71116;SDS011;58775;46.992;9.518;2023-03-23T14:16:48;6.88;;;3.28;;
71116;SDS011;58775;46.992;9.518;2023-03-23T14:18:59;6.65;;;3.35;;
71116;SDS011;58775;46.992;9.518;2023-03-23T14:21:04;6.72;;;3.88;;
71116;SDS011;58775;46.992;9.518;2023-03-23T14:23:14;9.10;;;3.60;;
71116;SDS011;58775;46.992;9.518;2023-03-23T14:25:18;8.05;;;3.60;;
71116;SDS011;58775;46.992;9.518;2023-03-23T14:27:22;6.85;;;3.50;;
71116;SDS011;58775;46.992;9.518;2023-03-23T14:29:24;8.43;;;3.67;;
71116;SDS011;58775;46.992;9.518;2023-03-23T14:31:27;6.72;;;3.50;;
71116;SDS011;58775;46.992;9.518;2023-03-23T14:33:29;6.77;;;3.30;;
71116;SDS011;58775;46.992;9.518;2023-03-23T14:35:31;5.93;;;2.80;;
71116;SDS011;58775;46.992;9.518;2023-03-23T14:37:34;7.95;;;3.58;;
71116;SDS011;58775;46.992;9.518;2023-03-23T14:39:36;7.63;;;3.30;;
71116;SDS011;58775;46.992;9.518;2023-03-23T14:41:38;8.52;;;3.47;;
71116;SDS011;58775;46.992;9.518;2023-03-23T14:43:39;7.93;;;2.70;;
71116;SDS011;58775;46.992;9.518;2023-03-23T14:45:41;6.97;;;2.78;;
71116;SDS011;58775;46.992;9.518;2023-03-23T14:47:47;7.40;;;2.30;;
71116;SDS011;58775;46.992;9.518;2023-03-23T14:50:29;5.75;;;2.00;;
71116;SDS011;58775;46.992;9.518;2023-03-23T14:52:37;5.97;;;2.22;;
71116;SDS011;58775;46.992;9.518;2023-03-23T14:54:40;4.77;;;2.00;;
71116;SDS011;58775;46.992;9.518;2023-03-23T14:56:43;4.95;;;2.08;;
71116;SDS011;58775;46.992;9.518;2023-03-23T14:58:45;5.72;;;2.10;;
71116;SDS011;58775;46.992;9.518;2023-03-23T15:01:00;5.65;;;1.85;;
71116;SDS011;58775;46.992;9.518;2023-03-23T15:03:16;5.63;;;1.92;;
71116;SDS011;58775;46.992;9.518;2023-03-23T15:05:21;5.77;;;2.00;;
71116;SDS011;58775;46.992;9.518;2023-03-23T15:07:33;3.58;;;1.63;;
71116;SDS011;58775;46.992;9.518;2023-03-23T15:09:37;6.50;;;1.77;;
71116;SDS011;58775;46.992;9.518;2023-03-23T15:11:49;6.13;;;2.15;;
71116;SDS011;58775;46.992;9.518;2023-03-23T15:14:24;5.30;;;1.77;;
71116;SDS011;58775;46.992;9.518;2023-03-23T15:16:32;5.07;;;2.20;;
71116;SDS011;58775;46.992;9.518;2023-03-23T15:18:36;4.53;;;1.88;;
71116;SDS011;58775;46.992;9.518;2023-03-23T15:22:47;5.32;;;1.90;;